createdAt,value
2017-10-19T00:00:56.457Z,6.1
2017-10-19T00:02:15.171Z,6.1
2017-10-19T00:03:33.814Z,6.1
2017-10-19T00:04:52.465Z,6
2017-10-19T00:06:11.117Z,6
2017-10-19T00:07:29.819Z,6
2017-10-19T00:08:48.468Z,5.9
2017-10-19T00:10:07.145Z,5.9
2017-10-19T00:11:25.790Z,5.8
2017-10-19T00:12:44.509Z,5.7
2017-10-19T00:14:03.207Z,5.8
2017-10-19T00:15:21.852Z,5.7
2017-10-19T00:16:40.549Z,5.8
2017-10-19T00:17:59.197Z,5.9
2017-10-19T00:19:17.842Z,5.9
2017-10-19T00:20:36.528Z,6
2017-10-19T00:21:55.177Z,6
2017-10-19T00:23:13.888Z,6.1
2017-10-19T00:24:32.571Z,6.1
2017-10-19T00:25:51.242Z,6.1
2017-10-19T00:27:09.926Z,6.2
2017-10-19T00:28:28.633Z,6.1
2017-10-19T00:29:47.314Z,6
2017-10-19T00:31:05.990Z,6
2017-10-19T00:32:24.642Z,5.9
2017-10-19T00:33:43.296Z,5.7
2017-10-19T00:35:02.014Z,5.7
2017-10-19T00:36:20.666Z,5.7
2017-10-19T00:37:39.313Z,5.6
2017-10-19T00:38:57.991Z,5.6
2017-10-19T00:40:16.629Z,5.5
2017-10-19T00:41:35.314Z,5.5
2017-10-19T00:42:53.968Z,5.5
2017-10-19T00:44:12.677Z,5.5
2017-10-19T00:45:31.334Z,5.5
2017-10-19T00:46:49.978Z,5.5
2017-10-19T00:48:08.624Z,5.5
2017-10-19T00:49:27.301Z,5.5
2017-10-19T00:50:45.988Z,5.6
2017-10-19T00:52:04.635Z,5.7
2017-10-19T00:53:23.277Z,5.7
2017-10-19T00:54:41.959Z,5.7
2017-10-19T00:56:00.607Z,5.7
2017-10-19T00:57:19.284Z,5.8
2017-10-19T00:58:37.989Z,5.9
2017-10-19T00:59:56.662Z,5.8
2017-10-19T01:01:15.364Z,5.9
2017-10-19T01:02:34.064Z,5.9
2017-10-19T01:03:52.775Z,5.8
2017-10-19T01:05:11.440Z,5.7
2017-10-19T01:06:30.127Z,5.7
2017-10-19T01:07:48.774Z,5.7
2017-10-19T01:09:07.428Z,5.6
2017-10-19T01:10:26.130Z,5.5
2017-10-19T01:11:44.779Z,5.5
2017-10-19T01:13:03.429Z,5.5
2017-10-19T01:14:22.122Z,5.4
2017-10-19T01:15:40.838Z,5.4
2017-10-19T01:16:59.484Z,5.5
2017-10-19T01:18:18.138Z,5.5
2017-10-19T01:19:36.831Z,5.5
2017-10-19T01:20:55.540Z,5.5
2017-10-19T01:22:14.237Z,5.6
2017-10-19T01:23:32.874Z,5.6
2017-10-19T01:24:51.518Z,5.7
2017-10-19T01:26:10.213Z,5.7
2017-10-19T01:27:28.865Z,5.7
2017-10-19T01:28:47.530Z,5.6
2017-10-19T01:30:06.205Z,5.5
2017-10-19T01:31:24.884Z,5.5
2017-10-19T01:32:43.533Z,5.5
2017-10-19T01:34:02.186Z,5.5
2017-10-19T01:35:20.834Z,5.4
2017-10-19T01:36:39.511Z,5.5
2017-10-19T01:37:58.169Z,5.5
2017-10-19T01:39:16.847Z,5.5
2017-10-19T01:40:35.516Z,5.5
2017-10-19T01:41:54.170Z,5.6
2017-10-19T01:43:12.862Z,5.5
2017-10-19T01:44:31.517Z,5.5
2017-10-19T01:45:50.233Z,5.7
2017-10-19T01:47:08.914Z,5.7
2017-10-19T01:48:27.558Z,5.7
2017-10-19T01:49:46.213Z,5.8
2017-10-19T01:51:04.861Z,5.7
2017-10-19T01:52:23.541Z,5.8
2017-10-19T01:53:42.186Z,5.8
2017-10-19T01:55:00.841Z,5.8
2017-10-19T01:56:19.487Z,5.8
2017-10-19T01:57:38.146Z,5.7
2017-10-19T01:58:56.853Z,5.7
2017-10-19T02:00:15.500Z,5.7
2017-10-19T02:01:34.148Z,5.5
2017-10-19T02:02:52.884Z,5.5
2017-10-19T02:04:11.547Z,5.5
2017-10-19T02:05:30.194Z,5.5
2017-10-19T02:06:48.846Z,5.4
2017-10-19T02:08:07.527Z,5.3
2017-10-19T02:09:26.227Z,5.3
2017-10-19T02:10:44.869Z,5.3
2017-10-19T02:12:03.515Z,5.3
2017-10-19T02:13:22.177Z,5.2
2017-10-19T02:14:40.858Z,5.3
2017-10-19T02:15:59.501Z,5.3
2017-10-19T02:17:18.145Z,5.4
2017-10-19T02:18:36.882Z,5.4
2017-10-19T02:19:55.530Z,5.4
2017-10-19T02:21:14.182Z,5.5
2017-10-19T02:22:32.830Z,5.4
2017-10-19T02:23:51.576Z,5.4
2017-10-19T02:25:10.265Z,5.4
2017-10-19T02:26:28.969Z,5.3
2017-10-19T02:27:47.638Z,5.2
2017-10-19T02:29:06.345Z,5.2
2017-10-19T02:30:25.049Z,5.2
2017-10-19T02:31:43.696Z,5.2
2017-10-19T02:33:02.343Z,5.2
2017-10-19T02:34:21.006Z,5.1
2017-10-19T02:35:39.670Z,5.1
2017-10-19T02:36:58.348Z,5.1
2017-10-19T02:38:16.998Z,5.2
2017-10-19T02:39:35.669Z,5.2
2017-10-19T02:40:54.317Z,5.1
2017-10-19T02:42:13.019Z,5.1
2017-10-19T02:43:31.732Z,5.1
2017-10-19T02:44:50.381Z,5.1
2017-10-19T02:46:09.030Z,5.1
2017-10-19T02:47:27.690Z,5.1
2017-10-19T02:48:46.387Z,5.1
2017-10-19T02:50:05.067Z,5.1
2017-10-19T02:51:23.743Z,5
2017-10-19T02:52:42.410Z,5
2017-10-19T02:54:01.112Z,5
2017-10-19T02:55:19.762Z,4.9
2017-10-19T02:56:38.417Z,4.9
2017-10-19T02:57:57.068Z,5
2017-10-19T02:59:15.767Z,5
2017-10-19T03:00:34.432Z,5
2017-10-19T03:01:53.088Z,5
2017-10-19T03:03:11.725Z,5
2017-10-19T03:04:30.373Z,5
2017-10-19T03:05:49.064Z,4.9
2017-10-19T03:07:07.717Z,4.9
2017-10-19T03:08:26.432Z,4.8
2017-10-19T03:09:45.123Z,4.8
2017-10-19T03:11:03.792Z,4.8
2017-10-19T03:12:22.443Z,4.8
2017-10-19T03:13:41.094Z,4.8
2017-10-19T03:14:59.797Z,4.8
2017-10-19T03:16:18.470Z,4.8
2017-10-19T03:17:37.154Z,4.8
2017-10-19T03:18:55.806Z,4.8
2017-10-19T03:20:14.501Z,4.8
2017-10-19T03:21:33.230Z,4.8
2017-10-19T03:22:51.879Z,4.8
2017-10-19T03:24:10.524Z,4.7
2017-10-19T03:25:29.173Z,4.7
2017-10-19T03:26:47.842Z,4.7
2017-10-19T03:28:06.513Z,4.7
2017-10-19T03:29:25.154Z,4.7
2017-10-19T03:30:43.806Z,4.7
2017-10-19T03:32:02.479Z,4.6
2017-10-19T03:33:21.173Z,4.7
2017-10-19T03:34:39.820Z,4.6
2017-10-19T03:35:58.485Z,4.6
2017-10-19T03:37:17.186Z,4.6
2017-10-19T03:38:35.830Z,4.6
2017-10-19T03:39:54.466Z,4.6
2017-10-19T03:41:13.158Z,4.6
2017-10-19T03:42:31.812Z,4.6
2017-10-19T03:43:50.453Z,4.6
2017-10-19T03:45:09.102Z,4.6
2017-10-19T03:46:27.751Z,4.5
2017-10-19T03:47:46.447Z,4.5
2017-10-19T03:49:05.137Z,4.5
2017-10-19T03:50:23.786Z,4.5
2017-10-19T03:51:42.444Z,4.5
2017-10-19T03:53:01.128Z,4.5
2017-10-19T03:54:19.835Z,4.5
2017-10-19T03:55:38.486Z,4.5
2017-10-19T03:56:57.131Z,4.4
2017-10-19T03:58:15.791Z,4.4
2017-10-19T03:59:34.483Z,4.4
2017-10-19T04:00:53.133Z,4.4
2017-10-19T04:02:11.788Z,4.4
2017-10-19T04:03:30.471Z,4.5
2017-10-19T04:04:49.120Z,4.5
2017-10-19T04:06:07.815Z,4.5
2017-10-19T04:07:26.460Z,4.5
2017-10-19T04:08:45.137Z,4.5
2017-10-19T04:10:03.792Z,4.5
2017-10-19T04:11:22.442Z,4.5
2017-10-19T04:12:41.157Z,4.5
2017-10-19T04:13:59.862Z,4.5
2017-10-19T04:15:18.539Z,4.5
2017-10-19T04:16:37.180Z,4.4
2017-10-19T04:17:55.828Z,4.4
2017-10-19T04:19:14.555Z,4.4
2017-10-19T04:20:33.261Z,4.4
2017-10-19T04:21:51.902Z,4.4
2017-10-19T04:23:10.544Z,4.4
2017-10-19T04:24:29.241Z,4.3
2017-10-19T04:25:47.914Z,4.3
2017-10-19T04:27:06.623Z,4.3
2017-10-19T04:28:25.270Z,4.2
2017-10-19T04:29:43.940Z,4.3
2017-10-19T04:31:02.627Z,4.2
2017-10-19T04:32:21.297Z,4.3
2017-10-19T04:33:39.961Z,4.3
2017-10-19T04:34:58.635Z,4.2
2017-10-19T04:36:17.282Z,4.2
2017-10-19T04:37:35.974Z,4.2
2017-10-19T04:38:54.626Z,4.1
2017-10-19T04:40:13.312Z,4.2
2017-10-19T04:41:31.965Z,4.2
2017-10-19T04:42:50.605Z,4.2
2017-10-19T04:44:09.284Z,4.2
2017-10-19T04:45:27.955Z,4.2
2017-10-19T04:46:46.646Z,4.2
2017-10-19T04:48:05.302Z,4.2
2017-10-19T04:49:23.947Z,4.2
2017-10-19T04:50:42.601Z,4.2
2017-10-19T04:52:01.256Z,4.2
2017-10-19T04:53:19.896Z,4.2
2017-10-19T04:54:38.538Z,4.2
2017-10-19T04:55:57.208Z,4.2
2017-10-19T04:57:15.938Z,4.2
2017-10-19T04:58:34.590Z,4.2
2017-10-19T04:59:53.232Z,4.2
2017-10-19T05:01:11.898Z,4.2
2017-10-19T05:02:30.543Z,4.3
2017-10-19T05:03:49.218Z,4.3
2017-10-19T05:05:07.869Z,4.3
2017-10-19T05:06:26.573Z,4.3
2017-10-19T05:07:45.214Z,4.2
2017-10-19T05:09:03.867Z,4.2
2017-10-19T05:10:22.519Z,4.1
2017-10-19T05:11:41.248Z,4.1
2017-10-19T05:12:59.885Z,4.1
2017-10-19T05:14:18.524Z,4
2017-10-19T05:15:37.184Z,4
2017-10-19T05:16:55.870Z,4.1
2017-10-19T05:18:14.570Z,4.1
2017-10-19T05:19:33.244Z,4.1
2017-10-19T05:20:51.884Z,4.1
2017-10-19T05:22:10.555Z,4.1
2017-10-19T05:23:29.257Z,4.1
2017-10-19T05:24:47.957Z,4.1
2017-10-19T05:26:06.629Z,4.1
2017-10-19T05:27:25.327Z,4.1
2017-10-19T05:28:43.977Z,4.1
2017-10-19T05:30:02.633Z,4.1
2017-10-19T05:31:21.294Z,4.1
2017-10-19T05:32:39.957Z,4.1
2017-10-19T05:33:58.606Z,4.1
2017-10-19T05:35:17.258Z,4.1
2017-10-19T05:36:35.937Z,4.1
2017-10-19T05:37:54.656Z,4.1
2017-10-19T05:39:13.339Z,4.1
2017-10-19T05:40:31.981Z,4
2017-10-19T05:41:50.630Z,4
2017-10-19T05:43:09.337Z,4.1
2017-10-19T05:44:27.997Z,4
2017-10-19T05:45:46.651Z,4
2017-10-19T05:47:05.302Z,4
2017-10-19T05:48:23.957Z,4.1
2017-10-19T05:49:42.603Z,4.1
2017-10-19T05:51:01.270Z,4
2017-10-19T05:52:19.921Z,4
2017-10-19T05:53:38.637Z,4
2017-10-19T05:54:57.276Z,4.1
2017-10-19T05:56:15.942Z,4.1
2017-10-19T05:57:34.599Z,4
2017-10-19T05:58:53.280Z,4.1
2017-10-19T06:00:11.926Z,4.1
2017-10-19T06:01:30.622Z,4.1
2017-10-19T06:02:49.267Z,4.2
2017-10-19T06:04:07.917Z,4.2
2017-10-19T06:05:26.566Z,4.2
2017-10-19T06:06:45.213Z,4.3
2017-10-19T06:08:03.860Z,4.3
2017-10-19T06:09:22.525Z,4.4
2017-10-19T06:10:41.175Z,4.4
2017-10-19T06:11:59.847Z,4.4
2017-10-19T06:13:18.523Z,4.5
2017-10-19T06:14:37.225Z,4.5
2017-10-19T06:15:55.907Z,4.5
2017-10-19T06:17:14.557Z,4.5
2017-10-19T06:18:33.202Z,4.6
2017-10-19T06:19:51.862Z,4.6
2017-10-19T06:21:10.532Z,4.6
2017-10-19T06:22:29.182Z,4.7
2017-10-19T06:23:47.822Z,4.7
2017-10-19T06:25:06.481Z,4.8
2017-10-19T06:26:25.160Z,4.8
2017-10-19T06:27:43.861Z,4.8
2017-10-19T06:29:02.514Z,4.8
2017-10-19T06:30:21.195Z,4.8
2017-10-19T06:31:39.843Z,4.9
2017-10-19T06:32:58.492Z,4.9
2017-10-19T06:34:17.180Z,5
2017-10-19T06:35:35.835Z,5
2017-10-19T06:36:54.535Z,5.1
2017-10-19T06:38:13.179Z,5.2
2017-10-19T06:39:31.830Z,5.2
2017-10-19T06:40:50.530Z,5.3
2017-10-19T06:42:09.192Z,5.4
2017-10-19T06:43:27.885Z,5.5
2017-10-19T06:44:46.535Z,5.5
2017-10-19T06:46:05.222Z,5.5
2017-10-19T06:47:23.924Z,5.6
2017-10-19T06:48:42.569Z,5.7
2017-10-19T06:50:01.214Z,5.7
2017-10-19T06:51:19.900Z,5.8
2017-10-19T06:52:38.552Z,5.8
2017-10-19T06:53:57.198Z,5.9
2017-10-19T06:55:15.850Z,5.9
2017-10-19T06:56:34.536Z,6
2017-10-19T06:57:53.236Z,6
2017-10-19T06:59:11.887Z,6.1
2017-10-19T07:00:30.558Z,6.1
2017-10-19T07:01:49.231Z,6.1
2017-10-19T07:03:07.906Z,6.2
2017-10-19T07:04:26.549Z,6.2
2017-10-19T07:05:45.197Z,6.2
2017-10-19T07:07:03.893Z,6.3
2017-10-19T07:08:22.535Z,6.3
2017-10-19T07:09:41.209Z,6.5
2017-10-19T07:10:59.908Z,6.5
2017-10-19T07:12:18.615Z,6.7
2017-10-19T07:13:37.264Z,6.7
2017-10-19T07:14:55.908Z,6.8
2017-10-19T07:16:14.581Z,6.9
2017-10-19T07:17:33.276Z,6.9
2017-10-19T07:18:51.921Z,7
2017-10-19T07:20:10.585Z,7.1
2017-10-19T07:21:29.235Z,7.1
2017-10-19T07:22:47.928Z,7.2
2017-10-19T07:24:06.578Z,7.2
2017-10-19T07:25:25.307Z,7.3
2017-10-19T07:26:43.981Z,7.4
2017-10-19T07:28:02.667Z,7.4
2017-10-19T07:29:21.317Z,7.5
2017-10-19T07:30:39.961Z,7.6
2017-10-19T07:31:58.605Z,7.7
2017-10-19T07:33:17.286Z,7.8
2017-10-19T07:34:35.936Z,7.8
2017-10-19T07:35:54.610Z,7.9
2017-10-19T07:37:13.261Z,8
2017-10-19T07:38:31.912Z,8.1
2017-10-19T07:39:50.593Z,8.2
2017-10-19T07:41:09.295Z,8.3
2017-10-19T07:42:27.956Z,8.3
2017-10-19T07:43:46.661Z,8.4
2017-10-19T07:45:05.346Z,8.5
2017-10-19T07:46:23.993Z,8.6
2017-10-19T07:47:42.646Z,8.8
2017-10-19T07:49:01.343Z,8.8
2017-10-19T07:50:20.055Z,8.9
2017-10-19T07:51:38.741Z,9
2017-10-19T07:52:57.384Z,9
2017-10-19T07:54:16.046Z,9.1
2017-10-19T07:55:34.733Z,9.1
2017-10-19T07:56:53.426Z,9.2
2017-10-19T07:58:12.074Z,9.3
2017-10-19T07:59:30.743Z,9.3
2017-10-19T08:00:49.395Z,9.4
2017-10-19T08:02:08.045Z,9.4
2017-10-19T08:03:26.727Z,9.5
2017-10-19T08:04:45.412Z,9.6
2017-10-19T08:06:04.068Z,9.7
2017-10-19T08:07:22.716Z,9.8
2017-10-19T08:08:41.365Z,9.9
2017-10-19T08:10:00.078Z,10.1
2017-10-19T08:11:18.747Z,10.1
2017-10-19T08:12:37.421Z,10.3
2017-10-19T08:13:56.087Z,10.3
2017-10-19T08:15:14.779Z,10.3
2017-10-19T08:16:33.442Z,10.3
2017-10-19T08:17:52.111Z,10.4
2017-10-19T08:19:10.773Z,10.5
2017-10-19T08:20:29.470Z,10.6
2017-10-19T08:21:48.138Z,10.8
2017-10-19T08:23:06.806Z,11
2017-10-19T08:24:25.512Z,11
2017-10-19T08:25:44.210Z,11.2
2017-10-19T08:27:02.877Z,11.3
2017-10-19T08:28:21.542Z,11.3
2017-10-19T08:29:40.237Z,11.4
2017-10-19T08:30:58.974Z,11.6
2017-10-19T08:32:17.637Z,11.8
2017-10-19T08:33:36.344Z,12.1
2017-10-19T08:34:55.031Z,12.3
2017-10-19T08:36:13.721Z,12.3
2017-10-19T08:37:32.434Z,12.8
2017-10-19T08:38:51.098Z,13.3
2017-10-19T08:40:09.817Z,13.6
2017-10-19T08:41:28.563Z,13.7
2017-10-19T08:42:47.251Z,13.8
2017-10-19T08:44:05.921Z,13.8
2017-10-19T08:45:24.632Z,14
2017-10-19T08:46:43.355Z,14
2017-10-19T08:48:02.021Z,14.1
2017-10-19T08:49:20.679Z,14
2017-10-19T08:50:39.343Z,14.3
2017-10-19T08:51:58.042Z,14.4
2017-10-19T08:53:16.755Z,14.5
2017-10-19T08:54:35.447Z,14.6
2017-10-19T08:55:54.104Z,14.8
2017-10-19T08:57:12.769Z,15
2017-10-19T08:58:31.452Z,15.2
2017-10-19T08:59:50.144Z,15.4
2017-10-19T09:01:08.801Z,15.6
2017-10-19T09:02:27.530Z,15.7
2017-10-19T09:03:46.254Z,15.9
2017-10-19T09:05:04.946Z,16
2017-10-19T09:06:23.608Z,16
2017-10-19T09:07:42.357Z,16.2
2017-10-19T09:09:01.077Z,16.1
2017-10-19T09:10:19.769Z,16.1
2017-10-19T09:11:38.429Z,16.1
2017-10-19T09:12:57.094Z,16.1
2017-10-19T09:14:15.759Z,16.1
2017-10-19T09:15:34.433Z,16.2
2017-10-19T09:16:53.091Z,16.1
2017-10-19T09:18:11.773Z,16.1
2017-10-19T09:19:30.467Z,16
2017-10-19T09:20:49.163Z,16
2017-10-19T09:22:07.856Z,16.1
2017-10-19T09:23:26.540Z,16.1
2017-10-19T09:24:45.200Z,16.1
2017-10-19T09:26:03.860Z,16.1
2017-10-19T09:27:22.559Z,16.2
2017-10-19T09:28:41.281Z,16.4
2017-10-19T09:29:59.984Z,16.5
2017-10-19T09:31:18.652Z,16.5
2017-10-19T09:32:37.315Z,16.4
2017-10-19T09:33:55.976Z,16.4
2017-10-19T09:35:14.649Z,16.5
2017-10-19T09:36:33.328Z,16.5
2017-10-19T09:37:51.989Z,16.6
2017-10-19T09:39:10.680Z,16.6
2017-10-19T09:40:29.393Z,16.7
2017-10-19T09:41:48.050Z,16.8
2017-10-19T09:43:06.704Z,16.8
2017-10-19T09:44:25.401Z,16.9
2017-10-19T09:45:44.120Z,16.8
2017-10-19T09:47:02.781Z,16.8
2017-10-19T09:48:21.484Z,16.8
2017-10-19T09:49:40.158Z,16.9
2017-10-19T09:50:58.824Z,17
2017-10-19T09:52:17.485Z,17.1
2017-10-19T09:53:36.150Z,17.1
2017-10-19T09:54:54.879Z,17.1
2017-10-19T09:56:13.544Z,17.1
2017-10-19T09:57:32.236Z,17.1
2017-10-19T09:58:50.929Z,17.1
2017-10-19T10:00:09.611Z,17.2
2017-10-19T10:01:28.280Z,17.1
2017-10-19T10:02:46.949Z,17.1
2017-10-19T10:04:05.648Z,17.1
2017-10-19T10:05:24.334Z,17.1
2017-10-19T10:06:42.998Z,17.2
2017-10-19T10:08:01.655Z,17.1
2017-10-19T10:09:20.315Z,17.2
2017-10-19T10:10:39.003Z,17.3
2017-10-19T10:11:57.673Z,17.4
2017-10-19T10:13:16.331Z,17.4
2017-10-19T10:14:35.030Z,17.4
2017-10-19T10:15:53.745Z,17.3
2017-10-19T10:17:12.416Z,17.2
2017-10-19T10:18:31.077Z,17.4
2017-10-19T10:19:49.771Z,17.4
2017-10-19T10:21:08.448Z,17.4
2017-10-19T10:22:27.109Z,17.5
2017-10-19T10:23:45.770Z,17.4
2017-10-19T10:25:04.448Z,17.5
2017-10-19T10:26:23.209Z,17.5
2017-10-19T10:27:41.871Z,17.5
2017-10-19T10:29:00.542Z,17.6
2017-10-19T10:30:19.216Z,17.6
2017-10-19T10:31:37.930Z,17.7
2017-10-19T10:32:56.605Z,17.7
2017-10-19T10:34:15.275Z,17.7
2017-10-19T10:35:33.989Z,17.7
2017-10-19T10:36:52.702Z,17.8
2017-10-19T10:38:11.365Z,17.8
2017-10-19T10:39:30.030Z,17.8
2017-10-19T10:40:48.696Z,17.9
2017-10-19T10:42:07.397Z,17.9
2017-10-19T10:43:26.116Z,17.9
2017-10-19T10:44:44.801Z,18
2017-10-19T10:46:03.456Z,18
2017-10-19T10:47:22.144Z,18
2017-10-19T10:48:40.812Z,18
2017-10-19T10:49:59.548Z,18.1
2017-10-19T10:51:18.272Z,18.1
2017-10-19T10:52:36.954Z,18.2
2017-10-19T10:53:55.669Z,18.3
2017-10-19T10:55:14.343Z,18.2
2017-10-19T10:56:33.009Z,18.2
2017-10-19T10:57:51.720Z,18.2
2017-10-19T10:59:10.428Z,18.3
2017-10-19T11:00:29.095Z,18.2
2017-10-19T11:01:47.760Z,18.3
2017-10-19T11:03:06.454Z,18.2
2017-10-19T11:04:25.114Z,18.2
2017-10-19T11:05:43.784Z,18.3
2017-10-19T11:07:02.458Z,18.3
2017-10-19T11:08:21.136Z,18.3
2017-10-19T11:09:39.855Z,18.3
2017-10-19T11:10:58.550Z,18.4
2017-10-19T11:12:17.209Z,18.5
2017-10-19T11:13:35.899Z,18.5
2017-10-19T11:14:54.650Z,18.5
2017-10-19T11:16:13.322Z,18.5
2017-10-19T11:17:31.978Z,18.6
2017-10-19T11:18:50.647Z,18.7
2017-10-19T11:20:09.341Z,18.7
2017-10-19T11:21:28.009Z,18.7
2017-10-19T11:22:46.687Z,18.7
2017-10-19T11:24:05.383Z,18.7
2017-10-19T11:25:24.068Z,18.7
2017-10-19T11:26:42.794Z,18.7
2017-10-19T11:28:01.457Z,18.7
2017-10-19T11:29:20.165Z,18.7
2017-10-19T11:30:38.827Z,18.7
2017-10-19T11:31:57.518Z,18.7
2017-10-19T11:33:16.181Z,18.8
2017-10-19T11:34:34.873Z,18.8
2017-10-19T11:35:53.574Z,18.8
2017-10-19T11:37:12.239Z,18.8
2017-10-19T11:38:30.926Z,18.9
2017-10-19T11:39:49.622Z,19
2017-10-19T11:41:08.344Z,19
2017-10-19T11:42:27.009Z,19
2017-10-19T11:43:45.676Z,19
2017-10-19T11:45:04.393Z,19
2017-10-19T11:46:23.060Z,19
2017-10-19T11:47:41.726Z,19.1
2017-10-19T11:49:00.386Z,19.1
2017-10-19T11:50:19.079Z,19.1
2017-10-19T11:51:37.750Z,19.1
2017-10-19T11:52:56.431Z,19.1
2017-10-19T11:54:15.106Z,19.1
2017-10-19T11:55:33.768Z,19.2
2017-10-19T11:56:52.430Z,19.2
2017-10-19T11:58:11.090Z,19.1
2017-10-19T11:59:29.748Z,19.1
2017-10-19T12:00:48.443Z,19.2
2017-10-19T12:02:07.160Z,19.2
2017-10-19T12:03:25.831Z,19.2
2017-10-19T12:04:44.489Z,19.2
2017-10-19T12:06:03.196Z,19.3
2017-10-19T12:07:21.855Z,19.4
2017-10-19T12:08:40.522Z,19.5
2017-10-19T12:09:59.212Z,19.5
2017-10-19T12:11:17.876Z,19.8
2017-10-19T12:12:36.593Z,20.2
2017-10-19T12:13:55.252Z,20.8
2017-10-19T12:15:13.924Z,22.9
2017-10-19T12:16:32.646Z,26.3
2017-10-19T12:17:51.309Z,28.5
2017-10-19T12:19:09.968Z,30
2017-10-19T12:20:28.628Z,31.8
2017-10-19T12:21:47.292Z,31.9
2017-10-19T12:23:05.968Z,32.3
2017-10-19T12:24:24.634Z,33.7
2017-10-19T12:25:43.316Z,34.2
2017-10-19T12:27:01.996Z,34
2017-10-19T12:28:20.711Z,34.3
2017-10-19T12:29:39.425Z,34.5
2017-10-19T12:30:58.097Z,34.4
2017-10-19T12:32:16.794Z,32.7
2017-10-19T12:33:35.517Z,31.9
2017-10-19T12:34:54.228Z,33.9
2017-10-19T12:36:12.894Z,34.2
2017-10-19T12:37:31.622Z,34.4
2017-10-19T12:38:50.333Z,34.4
2017-10-19T12:40:09.059Z,34.7
2017-10-19T12:41:27.720Z,34.4
2017-10-19T12:42:46.442Z,34.4
2017-10-19T12:44:05.126Z,33.3
2017-10-19T12:45:23.799Z,32.9
2017-10-19T12:46:42.505Z,33.8
2017-10-19T12:48:01.208Z,34.3
2017-10-19T12:49:19.875Z,34.4
2017-10-19T12:50:38.544Z,34.3
2017-10-19T12:51:57.225Z,33.7
2017-10-19T12:53:15.908Z,34.4
2017-10-19T12:54:34.569Z,32.9
2017-10-19T12:55:53.232Z,31.2
2017-10-19T12:57:11.898Z,33.4
2017-10-19T12:58:30.586Z,34.5
2017-10-19T12:59:49.273Z,34.7
2017-10-19T13:01:07.973Z,34.7
2017-10-19T13:02:26.690Z,34.6
2017-10-19T13:03:45.391Z,34.7
2017-10-19T13:05:04.142Z,34.5
2017-10-19T13:06:22.802Z,34.4
2017-10-19T13:07:41.467Z,34.4
2017-10-19T13:09:00.140Z,33.5
2017-10-19T13:10:18.818Z,33.8
2017-10-19T13:11:37.489Z,34.6
2017-10-19T13:12:56.152Z,34.8
2017-10-19T13:14:14.835Z,34.9
2017-10-19T13:15:33.504Z,34.4
2017-10-19T13:16:52.168Z,31.5
2017-10-19T13:18:10.834Z,29.9
2017-10-19T13:19:29.562Z,28.5
2017-10-19T13:20:48.258Z,27.5
2017-10-19T13:22:06.914Z,26.9
2017-10-19T13:23:25.578Z,26.5
2017-10-19T13:24:44.293Z,26.4
2017-10-19T13:26:02.966Z,26.2
2017-10-19T13:27:21.662Z,26
2017-10-19T13:28:40.344Z,26.1
2017-10-19T13:29:59.088Z,26.3
2017-10-19T13:31:17.752Z,25.8
2017-10-19T13:32:36.423Z,25.4
2017-10-19T13:33:55.085Z,25.2
2017-10-19T13:35:13.810Z,24.9
2017-10-19T13:36:32.474Z,25.7
2017-10-19T13:37:51.151Z,25.7
2017-10-19T13:39:09.815Z,25.8
2017-10-19T13:40:28.523Z,25.9
2017-10-19T13:41:47.269Z,25.4
2017-10-19T13:43:05.956Z,25
2017-10-19T13:44:24.628Z,24.2
2017-10-19T13:45:43.291Z,23.6
2017-10-19T13:47:01.994Z,23.3
2017-10-19T13:48:20.696Z,22.8
2017-10-19T13:49:39.365Z,22.4
2017-10-19T13:50:58.065Z,22.3
2017-10-19T13:52:16.724Z,22.1
2017-10-19T13:53:35.407Z,22
2017-10-19T13:54:54.087Z,21.6
2017-10-19T13:56:12.808Z,21.3
2017-10-19T13:57:31.470Z,21.1
2017-10-19T13:58:50.132Z,21
2017-10-19T14:00:08.823Z,20.9
2017-10-19T14:01:27.560Z,21
2017-10-19T14:02:46.221Z,20.9
2017-10-19T14:04:04.898Z,20.7
2017-10-19T14:05:23.575Z,20.5
2017-10-19T14:06:42.278Z,20.4
2017-10-19T14:08:01.001Z,20.3
2017-10-19T14:09:19.659Z,20.3
2017-10-19T14:10:38.371Z,20.3
2017-10-19T14:11:57.095Z,20.1
2017-10-19T14:13:15.752Z,20
2017-10-19T14:14:34.428Z,19.9
2017-10-19T14:15:53.100Z,19.9
2017-10-19T14:17:11.783Z,19.7
2017-10-19T14:18:30.447Z,19.6
2017-10-19T14:19:49.121Z,19.6
2017-10-19T14:21:07.819Z,19.6
2017-10-19T14:22:26.552Z,19.6
2017-10-19T14:23:45.255Z,19.6
2017-10-19T14:25:03.959Z,19.6
2017-10-19T14:26:22.667Z,19.5
2017-10-19T14:27:41.337Z,19.5
2017-10-19T14:29:00.026Z,19.5
2017-10-19T14:30:18.736Z,19.4
2017-10-19T14:31:37.454Z,19.3
2017-10-19T14:32:56.146Z,19.2
2017-10-19T14:34:14.816Z,19.1
2017-10-19T14:35:33.491Z,19
2017-10-19T14:36:52.155Z,19
2017-10-19T14:38:10.862Z,18.9
2017-10-19T14:39:29.529Z,18.8
2017-10-19T14:40:48.203Z,18.8
2017-10-19T14:42:06.861Z,18.8
2017-10-19T14:43:25.553Z,18.7
2017-10-19T14:44:44.225Z,18.6
2017-10-19T14:46:02.891Z,18.5
2017-10-19T14:47:21.570Z,18.5
2017-10-19T14:48:40.254Z,18.4
2017-10-19T14:49:58.971Z,18.3
2017-10-19T14:51:17.642Z,18.2
2017-10-19T14:52:36.314Z,18.2
2017-10-19T14:53:55.009Z,18.1
2017-10-19T14:55:13.697Z,18.1
2017-10-19T14:56:32.383Z,18.1
2017-10-19T14:57:51.052Z,18
2017-10-19T14:59:09.778Z,17.9
2017-10-19T15:00:28.468Z,17.8
2017-10-19T15:01:47.136Z,17.7
2017-10-19T15:03:05.855Z,17.7
2017-10-19T15:04:24.525Z,17.6
2017-10-19T15:05:43.181Z,17.5
2017-10-19T15:07:01.920Z,17.5
2017-10-19T15:08:20.636Z,17.4
2017-10-19T15:09:39.341Z,17.3
2017-10-19T15:10:58.062Z,17.3
2017-10-19T15:12:16.795Z,17.3
2017-10-19T15:13:35.526Z,17.2
2017-10-19T15:14:54.194Z,17.1
2017-10-19T15:16:12.862Z,17.1
2017-10-19T15:17:31.528Z,17
2017-10-19T15:18:50.189Z,16.9
2017-10-19T15:20:08.889Z,16.9
2017-10-19T15:21:27.549Z,16.9
2017-10-19T15:22:46.205Z,16.9
2017-10-19T15:24:04.870Z,16.9
2017-10-19T15:25:23.587Z,16.8
2017-10-19T15:26:42.301Z,16.8
2017-10-19T15:28:00.969Z,16.7
2017-10-19T15:29:19.691Z,16.7
2017-10-19T15:30:38.388Z,16.6
2017-10-19T15:31:57.081Z,16.5
2017-10-19T15:33:15.750Z,16.5
2017-10-19T15:34:34.413Z,16.3
2017-10-19T15:35:53.133Z,16.3
2017-10-19T15:37:11.833Z,16.2
2017-10-19T15:38:30.517Z,16.2
2017-10-19T15:39:49.171Z,16.1
2017-10-19T15:41:07.866Z,16.1
2017-10-19T15:42:26.527Z,16
2017-10-19T15:43:45.186Z,16
2017-10-19T15:45:03.855Z,15.9
2017-10-19T15:46:22.524Z,15.7
2017-10-19T15:47:41.186Z,15.8
2017-10-19T15:48:59.852Z,15.7
2017-10-19T15:50:18.553Z,15.6
2017-10-19T15:51:37.262Z,15.6
2017-10-19T15:52:55.943Z,15.5
2017-10-19T15:54:14.620Z,15.4
2017-10-19T15:55:33.313Z,15.3
2017-10-19T15:56:52.039Z,15.2
2017-10-19T15:58:10.704Z,15.1
2017-10-19T15:59:29.406Z,15.1
2017-10-19T16:00:48.080Z,15.1
2017-10-19T16:02:06.771Z,15.1
2017-10-19T16:03:25.483Z,15
2017-10-19T16:04:44.208Z,14.8
2017-10-19T16:06:02.920Z,14.7
2017-10-19T16:07:21.698Z,14.6
2017-10-19T16:08:40.356Z,14.5
2017-10-19T16:09:59.034Z,14.5
2017-10-19T16:11:17.694Z,14.5
2017-10-19T16:12:36.384Z,14.4
2017-10-19T16:13:55.054Z,14.3
2017-10-19T16:15:13.716Z,14.1
2017-10-19T16:16:32.379Z,14
2017-10-19T16:17:51.053Z,13.9
2017-10-19T16:19:09.714Z,13.9
2017-10-19T16:20:28.424Z,13.9
2017-10-19T16:21:47.091Z,13.9
2017-10-19T16:23:05.760Z,13.8
2017-10-19T16:24:24.419Z,13.8
2017-10-19T16:25:43.111Z,13.6
2017-10-19T16:27:01.771Z,13.5
2017-10-19T16:28:20.520Z,13.5
2017-10-19T16:29:39.215Z,13.4
2017-10-19T16:30:57.955Z,13.6
2017-10-19T16:32:16.675Z,13.5
2017-10-19T16:33:35.364Z,13.3
2017-10-19T16:34:54.025Z,13.2
2017-10-19T16:36:12.691Z,13.1
2017-10-19T16:37:31.357Z,13.4
2017-10-19T16:38:50.061Z,13.4
2017-10-19T16:40:08.720Z,13.3
2017-10-19T16:41:27.381Z,13.3
2017-10-19T16:42:46.055Z,13.2
2017-10-19T16:44:04.747Z,13.2
2017-10-19T16:45:23.446Z,13
2017-10-19T16:46:42.118Z,12.9
2017-10-19T16:48:00.843Z,13.2
2017-10-19T16:49:19.572Z,13.2
2017-10-19T16:50:38.251Z,13
2017-10-19T16:51:56.915Z,13
2017-10-19T16:53:15.586Z,13
2017-10-19T16:54:34.260Z,13.2
2017-10-19T16:55:52.935Z,13.1
2017-10-19T16:57:11.623Z,12.8
2017-10-19T16:58:30.315Z,12.9
2017-10-19T16:59:49.011Z,13.1
2017-10-19T17:01:07.681Z,13.1
2017-10-19T17:02:26.399Z,13
2017-10-19T17:03:45.078Z,13
2017-10-19T17:05:03.779Z,13
2017-10-19T17:06:22.445Z,13.2
2017-10-19T17:07:41.114Z,13.2
2017-10-19T17:08:59.774Z,13
2017-10-19T17:10:18.461Z,12.9
2017-10-19T17:11:37.178Z,12.9
2017-10-19T17:12:55.850Z,12.7
2017-10-19T17:14:14.520Z,12.7
2017-10-19T17:15:33.251Z,12.6
2017-10-19T17:16:51.912Z,12.5
2017-10-19T17:18:10.574Z,12.7
2017-10-19T17:19:29.241Z,12.8
2017-10-19T17:20:47.978Z,12.6
2017-10-19T17:22:06.684Z,12.5
2017-10-19T17:23:25.354Z,12.4
2017-10-19T17:24:44.021Z,12.3
2017-10-19T17:26:02.716Z,12.3
2017-10-19T17:27:21.387Z,12.3
2017-10-19T17:28:40.101Z,12.5
2017-10-19T17:29:58.763Z,12.4
2017-10-19T17:31:17.512Z,12.2
2017-10-19T17:32:36.229Z,12.2
2017-10-19T17:33:54.923Z,12.1
2017-10-19T17:35:13.626Z,12
2017-10-19T17:36:32.297Z,11.9
2017-10-19T17:37:51.002Z,11.8
2017-10-19T17:39:09.675Z,11.7
2017-10-19T17:40:28.336Z,11.6
2017-10-19T17:41:47.027Z,11.6
2017-10-19T17:43:05.692Z,11.6
2017-10-19T17:44:24.396Z,11.7
2017-10-19T17:45:43.053Z,11.6
2017-10-19T17:47:01.744Z,11.5
2017-10-19T17:48:20.403Z,11.5
2017-10-19T17:49:39.107Z,11.5
2017-10-19T17:50:57.842Z,11.4